LFMT/MPL METAR and TAF weather

Enter ICAO airport designator
Station Type Date Time Source
LFMT METAR 2021/01/16 03:30 UTC NOAA

LFMT 160330Z AUTO 31004KT CAVOK 02/M03 Q1024 NOSIG


Station Type Date Time Source
LFMT Decoded METAR 2021/01/16 03:30 UTC NOAA

Montpellier, France (LFMT) 43-35N 003-58E 6M
Jan 15, 2021 - 10:30 PM EST / 2021.01.16 0330 UTC
Wind: from the NW (310 degrees) at 5 MPH (4 KT):0
Visibility: greater than 7 mile(s):0
Temperature: 35 F (2 C)
Windchill: 30 F (-1 C):1
Dew Point: 26 F (-3 C)
Relative Humidity: 69%
Pressure (altimeter): 30.24 in. Hg (1024 hPa)
ob: LFMT 160330Z AUTO 31004KT CAVOK 02/M03 Q1024 NOSIG
cycle: 3

Station Type Date Time Source
LFMT TAF 2021/01/16 03:21 UTC NOAA

TAF LFMT 160200Z 1603/1703 33010KT CAVOK
TEMPO 1603/1608 VRB03KT
BECMG 1609/1611 VRB03KT
BECMG 1617/1619 29012KT
TEMPO 1619/1624 VRB03KT -RA

Example: see airport list